Airfield :
LOGIN :

Register | Disclaimer

   EN    FR    IT 

 










Legend :    VFR   Marginal VFR   IFR   Intensive IFR   Very Intensive IFR
Visi :
Ceiling :
>= 8 km
>= 3000ft
5 to 8 km
1000 to 3000 ft
1500m to 5 km
500 to 1000 ft
800 to 1500m
200 to 500 ft
< 800m
< 200 ft
Symbols :   Thunderstorms  Fog  Heavy snow  Heavy precipitations  Wind > 20 kt
SIGMETs :     Misc.  Thunderstorms  Icing  Turbulence  Mountain Waves  Volcanic Ashes







- Airport Elevation : 132 ft


EGXE - RAF Leeming

CURRENT METAR :
  • 231350Z 15009KT 9999 SCT011 BKN028 14/12 Q1012 GRN TEMPO SCT004 YLO2

EXPIRED METARs :
  • 231315Z 18011KT 9999 FEW011 BKN015 BKN028 13/11 Q1013 WHT TEMPO 3000 -RADZ SCT006 YLO1
  • 231250Z 17014KT 9999 BKN008 BKN015 13/11 Q1012 GRN TEMPO 3000 -RADZ BKN006 YLO1
  • 231150Z 15011KT 9999 BKN013 BKN030 12/10 Q1013 GRN TEMPO 3000 -RADZ BKN006 YLO1

TAF AMD TAF EGXE
Valid from the 23 at 15:00 until the 23 at 20:00 UTC


231439Z 2315/2320 17008KT 9999 -RA BKN010
PROB30
TEMPO 2315/2318 2000 -RADZ SCT004
BECMG 2316/2319 FEW012 SCT030
No reported NOTAMs for that airfield.



MET'MAP, your aeronautical weather chart ! - Copyright ORBIFLY December 2007 - Disclaimer

ORBIFLY MET'MAP TEAM :

Programming & Development : Alexandra Zaïnal
Concept & Development : Baudouin d'Aumeries
Co-Development & Prog : Marc-Olivier Méhu
Technical & hardware support : Manuel Goepfert

Contact : metmap@orbifly.com




SOURCES & CREDITS :

   NOAA